createdAt,value
2019-02-09T00:01:16.915Z,52.33
2019-02-09T00:05:24.564Z,52.43
2019-02-09T00:09:30.986Z,55.03
2019-02-09T00:13:38.246Z,56.43
2019-02-09T00:17:44.497Z,51.97
2019-02-09T00:21:51.261Z,51.33
2019-02-09T00:26:02.011Z,51.47
2019-02-09T00:30:10.051Z,52.63
2019-02-09T00:34:16.428Z,50.37
2019-02-09T00:38:24.567Z,51.17
2019-02-09T00:42:30.876Z,54.30
2019-02-09T00:46:38.626Z,53.23
2019-02-09T00:50:43.939Z,51.20
2019-02-09T00:54:54.354Z,54.20
2019-02-09T00:58:58.628Z,51.67
2019-02-09T01:03:26.968Z,53.73
2019-02-09T01:07:33.271Z,50.87
2019-02-09T01:11:39.849Z,52.37
2019-02-09T01:15:46.991Z,51.80
2019-02-09T01:19:54.660Z,52.07
2019-02-09T01:28:10.568Z,50.23
2019-02-09T01:32:17.143Z,55.00
2019-02-09T01:36:25.258Z,49.47
2019-02-09T01:40:31.598Z,50.53
2019-02-09T01:44:38.042Z,51.50
2019-02-09T01:48:47.698Z,52.63
2019-02-09T01:52:55.116Z,53.50
2019-02-09T02:01:08.622Z,51.63
2019-02-09T02:05:15.826Z,51.77
2019-02-09T02:09:24.062Z,47.90
2019-02-09T02:13:30.519Z,48.43
2019-02-09T02:17:36.876Z,51.03
2019-02-09T02:21:43.837Z,48.33
2019-02-09T02:25:53.093Z,51.03
2019-02-09T02:30:02.355Z,51.63
2019-02-09T02:34:09.808Z,52.13
2019-02-09T02:38:16.233Z,51.60
2019-02-09T02:42:26.228Z,53.00
2019-02-09T02:46:32.567Z,52.47
2019-02-09T02:50:39.248Z,52.33
2019-02-09T02:55:03.921Z,50.47
2019-02-09T02:59:12.635Z,52.23
2019-02-09T03:03:18.924Z,52.30
2019-02-09T03:07:46.920Z,48.97
2019-02-09T03:11:53.225Z,53.23
2019-02-09T03:16:02.598Z,47.10
2019-02-09T03:20:05.187Z,47.40
2019-02-09T03:24:14.119Z,50.13
2019-02-09T03:28:39.482Z,50.47
2019-02-09T03:32:48.311Z,49.70
2019-02-09T03:36:54.616Z,49.40
2019-02-09T03:41:03.077Z,48.90
2019-02-09T03:45:12.869Z,47.70
2019-02-09T03:49:19.476Z,47.60
2019-02-09T03:53:26.676Z,47.33
2019-02-09T03:57:33.112Z,45.10
2019-02-09T04:06:18.759Z,47.73
2019-02-09T04:10:26.054Z,46.20
2019-02-09T04:14:34.037Z,48.53
2019-02-09T04:18:40.618Z,46.57
2019-02-09T04:22:50.885Z,45.87
2019-02-09T04:26:51.960Z,47.90
2019-02-09T04:31:05.434Z,46.47
2019-02-09T04:35:08.091Z,46.87
2019-02-09T04:39:21.876Z,46.47
2019-02-09T04:43:30.462Z,47.10
2019-02-09T04:47:38.071Z,43.87
2019-02-09T04:51:44.404Z,47.27
2019-02-09T04:55:51.859Z,49.07
2019-02-09T04:59:58.167Z,45.20
2019-02-09T05:04:04.928Z,46.00
2019-02-09T05:08:33.519Z,45.40
2019-02-09T05:12:40.670Z,42.87
2019-02-09T05:16:48.195Z,44.27
2019-02-09T05:20:57.933Z,40.83
2019-02-09T05:25:04.685Z,42.20
2019-02-09T05:29:12.798Z,41.97
2019-02-09T05:33:19.386Z,40.27
2019-02-09T05:37:27.387Z,39.70
2019-02-09T05:41:36.105Z,39.73
2019-02-09T05:45:43.482Z,40.90
2019-02-09T05:53:58.388Z,38.80
2019-02-09T05:58:04.719Z,36.53
2019-02-09T06:02:14.155Z,37.10
2019-02-09T06:06:20.435Z,39.03
2019-02-09T06:10:26.852Z,37.97
2019-02-09T06:14:54.266Z,37.20
2019-02-09T06:19:01.680Z,39.10
2019-02-09T06:23:08.018Z,37.50
2019-02-09T06:27:17.067Z,38.13
2019-02-09T06:31:23.390Z,37.23
2019-02-09T06:35:31.902Z,35.90
2019-02-09T06:39:39.481Z,34.93
2019-02-09T06:43:45.980Z,36.60
2019-02-09T06:47:53.709Z,34.03
2019-02-09T06:52:02.311Z,36.70
2019-02-09T06:56:10.145Z,37.17
2019-02-09T07:00:19.481Z,37.70
2019-02-09T07:04:25.862Z,34.13
2019-02-09T07:08:36.161Z,35.57
2019-02-09T07:12:42.492Z,37.53
2019-02-09T07:20:52.666Z,38.20
2019-02-09T07:25:00.337Z,39.80
2019-02-09T07:29:06.851Z,35.27
2019-02-09T07:33:34.547Z,42.03
2019-02-09T07:37:40.997Z,41.47
2019-02-09T07:41:52.674Z,41.37
2019-02-09T07:45:59.090Z,43.17
2019-02-09T07:50:06.932Z,41.10
2019-02-09T07:54:32.185Z,40.43
2019-02-09T07:58:41.587Z,40.50
2019-02-09T08:02:48.028Z,41.67
2019-02-09T08:06:56.338Z,42.03
2019-02-09T08:11:09.054Z,38.37
2019-02-09T08:15:12.337Z,43.57
2019-02-09T08:19:19.172Z,44.07
2019-02-09T08:23:25.580Z,44.40
2019-02-09T08:27:32.620Z,44.80
2019-02-09T08:31:40.412Z,44.47
2019-02-09T08:35:46.814Z,41.77
2019-02-09T08:40:14.995Z,46.93
2019-02-09T08:44:25.393Z,45.40
2019-02-09T08:48:32.130Z,43.50
2019-02-09T08:52:38.446Z,40.17
2019-02-09T08:56:45.134Z,41.43
2019-02-09T09:00:53.902Z,42.10
2019-02-09T09:05:09.409Z,41.47
2019-02-09T09:09:12.312Z,44.23
2019-02-09T09:13:18.994Z,43.73
2019-02-09T09:17:25.322Z,40.93
2019-02-09T09:21:31.178Z,39.90
2019-02-09T09:25:38.703Z,39.20
2019-02-09T09:29:45.435Z,35.63
2019-02-09T09:33:52.152Z,36.73
2019-02-09T09:38:00.241Z,36.07
2019-02-09T09:42:06.592Z,35.80
2019-02-09T09:46:16.364Z,35.43
2019-02-09T09:50:23.526Z,33.53
2019-02-09T09:54:32.581Z,31.93
2019-02-09T09:58:38.945Z,30.77
2019-02-09T10:02:45.404Z,28.03
2019-02-09T10:06:52.381Z,29.57
2019-02-09T10:10:59.398Z,25.30
2019-02-09T10:15:07.899Z,26.03
2019-02-09T10:19:11.687Z,24.70
2019-02-09T10:23:18.026Z,25.73
2019-02-09T10:27:25.825Z,25.33
2019-02-09T10:31:31.865Z,24.43
2019-02-09T10:35:38.244Z,24.67
2019-02-09T10:39:44.682Z,26.30
2019-02-09T10:43:55.086Z,26.53
2019-02-09T10:48:03.056Z,26.80
2019-02-09T10:52:12.580Z,26.37
2019-02-09T10:56:18.909Z,26.47
2019-02-09T11:00:31.960Z,24.83
2019-02-09T11:04:38.329Z,25.07
2019-02-09T11:08:44.898Z,25.17
2019-02-09T11:12:52.292Z,25.43
2019-02-09T11:16:59.860Z,25.23
2019-02-09T11:21:06.747Z,24.10
2019-02-09T11:25:21.124Z,23.70
2019-02-09T11:29:27.415Z,25.10
2019-02-09T11:33:48.422Z,24.37
2019-02-09T11:37:47.025Z,23.43
2019-02-09T11:41:54.785Z,23.70
2019-02-09T11:46:01.256Z,23.20
2019-02-09T11:50:12.605Z,23.57
2019-02-09T11:54:18.951Z,23.53
2019-02-09T11:58:26.164Z,23.40
2019-02-09T12:02:32.472Z,22.83
2019-02-09T12:06:39.523Z,23.60
2019-02-09T12:10:47.507Z,24.37
2019-02-09T12:14:54.242Z,24.40
2019-02-09T12:19:02.206Z,24.00
2019-02-09T12:23:30.077Z,22.30
2019-02-09T12:27:37.115Z,22.67
2019-02-09T12:31:43.529Z,21.70
2019-02-09T12:35:48.285Z,22.50
2019-02-09T12:39:57.159Z,22.17
2019-02-09T12:44:05.312Z,20.63
2019-02-09T12:48:12.186Z,20.50
2019-02-09T12:52:20.761Z,20.43
2019-02-09T12:56:29.636Z,20.90
2019-02-09T13:00:37.174Z,18.40
2019-02-09T13:04:45.838Z,20.80
2019-02-09T13:08:47.506Z,19.80
2019-02-09T13:12:55.835Z,21.17
2019-02-09T13:17:02.352Z,21.00
2019-02-09T13:21:29.718Z,18.47
2019-02-09T13:25:36.100Z,21.20
2019-02-09T13:29:42.643Z,19.90
2019-02-09T13:33:48.885Z,21.00
2019-02-09T13:37:55.621Z,22.57
2019-02-09T13:42:01.979Z,20.60
2019-02-09T13:46:12.214Z,25.00
2019-02-09T13:50:18.566Z,22.17
2019-02-09T13:54:32.617Z,23.43
2019-02-09T13:58:38.958Z,23.90
2019-02-09T14:02:49.094Z,23.90
2019-02-09T14:07:01.748Z,23.27
2019-02-09T14:11:09.282Z,23.90
2019-02-09T14:15:20.989Z,23.40
2019-02-09T14:19:28.611Z,25.37
2019-02-09T14:23:34.957Z,25.83
2019-02-09T14:27:41.492Z,25.33
2019-02-09T14:31:53.151Z,26.27
2019-02-09T14:36:02.460Z,24.70
2019-02-09T14:40:30.972Z,25.37
2019-02-09T14:44:37.436Z,24.83
2019-02-09T14:52:52.647Z,25.63
2019-02-09T14:57:02.123Z,25.53
2019-02-09T15:01:29.508Z,26.63
2019-02-09T15:05:35.946Z,26.10
2019-02-09T15:09:42.875Z,27.00
2019-02-09T15:13:49.781Z,24.53
2019-02-09T15:17:56.169Z,25.03
2019-02-09T15:22:02.557Z,25.83
2019-02-09T15:26:12.694Z,24.97
2019-02-09T15:30:22.043Z,25.07
2019-02-09T15:34:49.818Z,23.77
2019-02-09T15:38:56.181Z,24.23
2019-02-09T15:43:05.656Z,21.63
2019-02-09T15:47:13.855Z,23.13
2019-02-09T15:51:21.793Z,22.17
2019-02-09T15:55:27.831Z,23.57
2019-02-09T15:59:37.830Z,22.13
2019-02-09T16:03:47.342Z,23.57
2019-02-09T16:07:55.702Z,23.07
2019-02-09T16:12:05.496Z,22.40
2019-02-09T16:16:13.079Z,23.60
2019-02-09T16:20:20.929Z,23.43
2019-02-09T16:24:26.559Z,22.07
2019-02-09T16:28:32.944Z,21.97
2019-02-09T16:32:41.283Z,22.60
2019-02-09T16:36:49.123Z,22.23
2019-02-09T16:40:55.511Z,22.53
2019-02-09T16:45:01.817Z,23.63
2019-02-09T16:49:10.959Z,23.90
2019-02-09T16:53:18.438Z,24.90
2019-02-09T16:57:26.711Z,24.23
2019-02-09T17:01:34.980Z,24.77
2019-02-09T17:05:41.896Z,24.37
2019-02-09T17:09:49.757Z,23.03
2019-02-09T17:13:56.121Z,22.60
2019-02-09T17:18:02.490Z,22.40
2019-02-09T17:22:28.256Z,20.53
2019-02-09T17:26:35.454Z,18.90
2019-02-09T17:30:42.324Z,18.90
2019-02-09T17:35:07.808Z,18.50
2019-02-09T17:39:15.944Z,17.37
2019-02-09T17:43:22.436Z,16.73
2019-02-09T17:47:49.547Z,17.43
2019-02-09T17:51:55.971Z,17.37
2019-02-09T17:56:03.641Z,16.57
2019-02-09T18:00:17.774Z,16.90
2019-02-09T18:04:27.963Z,16.13
2019-02-09T18:08:38.614Z,15.97
2019-02-09T18:12:47.610Z,15.53
2019-02-09T18:16:53.997Z,15.37
2019-02-09T18:21:02.548Z,15.33
2019-02-09T18:25:27.270Z,17.20
2019-02-09T18:29:35.233Z,17.60
2019-02-09T18:37:52.021Z,15.83
2019-02-09T18:41:58.851Z,14.53
2019-02-09T18:46:07.987Z,15.30
2019-02-09T18:50:16.159Z,14.60
2019-02-09T18:54:22.718Z,15.63
2019-02-09T18:58:32.643Z,14.60
2019-02-09T19:02:43.509Z,16.60
2019-02-09T19:06:51.800Z,16.03
2019-02-09T19:10:58.382Z,17.70
2019-02-09T19:15:07.511Z,18.13
2019-02-09T19:19:15.207Z,18.60
2019-02-09T19:23:22.948Z,18.20
2019-02-09T19:27:29.324Z,17.47
2019-02-09T19:31:36.818Z,19.27
2019-02-09T19:39:52.952Z,17.80
2019-02-09T19:44:02.515Z,20.00
2019-02-09T19:48:27.443Z,19.80
2019-02-09T19:52:34.456Z,19.23
2019-02-09T19:56:43.125Z,21.07
2019-02-09T20:00:50.636Z,15.80
2019-02-09T20:04:57.128Z,19.93
2019-02-09T20:09:09.068Z,20.87
2019-02-09T20:13:15.702Z,19.93
2019-02-09T20:17:23.559Z,20.60
2019-02-09T20:21:47.588Z,20.63
2019-02-09T20:25:54.938Z,20.83
2019-02-09T20:30:01.357Z,21.43
2019-02-09T20:34:09.532Z,21.67
2019-02-09T20:38:15.924Z,20.40
2019-02-09T20:42:23.489Z,21.50
2019-02-09T20:47:08.143Z,21.63
2019-02-09T20:51:14.855Z,21.97
2019-02-09T20:55:21.635Z,22.83
2019-02-09T20:59:30.558Z,21.00
2019-02-09T21:03:36.917Z,21.83
2019-02-09T21:07:44.772Z,21.87
2019-02-09T21:11:50.772Z,20.67
2019-02-09T21:15:57.689Z,22.70
2019-02-09T21:20:09.331Z,21.57
2019-02-09T21:24:15.824Z,22.47
2019-02-09T21:28:22.127Z,21.30
2019-02-09T21:32:31.225Z,22.00
2019-02-09T21:36:37.544Z,21.13
2019-02-09T21:40:45.345Z,21.53
2019-02-09T21:44:48.207Z,22.30
2019-02-09T21:48:55.543Z,22.77
2019-02-09T21:53:01.915Z,23.30
2019-02-09T21:57:15.643Z,23.47
2019-02-09T22:01:23.646Z,22.77
2019-02-09T22:05:32.104Z,22.27
2019-02-09T22:09:38.450Z,22.10
2019-02-09T22:13:47.366Z,20.97
2019-02-09T22:17:54.783Z,22.03
2019-02-09T22:22:01.673Z,21.93
2019-02-09T22:26:13.240Z,21.87
2019-02-09T22:30:23.666Z,23.73
2019-02-09T22:34:47.706Z,22.03
2019-02-09T22:38:57.142Z,23.73
2019-02-09T22:47:13.399Z,21.80
2019-02-09T22:51:20.989Z,20.57
2019-02-09T22:55:27.372Z,20.77
2019-02-09T22:59:33.746Z,19.70
2019-02-09T23:04:05.715Z,18.83
2019-02-09T23:08:12.126Z,18.93
2019-02-09T23:12:19.808Z,20.00
2019-02-09T23:16:30.009Z,20.40
2019-02-09T23:20:36.779Z,20.93
2019-02-09T23:24:43.115Z,18.63
2019-02-09T23:28:51.245Z,19.97
2019-02-09T23:32:57.574Z,19.43
2019-02-09T23:37:05.876Z,19.63
2019-02-09T23:41:09.775Z,19.73
2019-02-09T23:45:17.354Z,19.00
2019-02-09T23:49:23.627Z,18.50
2019-02-09T23:53:33.625Z,18.33
2019-02-09T23:57:40.124Z,16.63
